sensor_id;sensor_type;location;lat;lon;timestamp;pressure;altitude;pressure_sealevel;temperature;humidity
56944;BME280;42848;42.524;12.052;2022-10-16T00:01:29;97171.09;;;15.73;100.00
56944;BME280;42848;42.524;12.052;2022-10-16T00:03:57;97173.03;;;15.84;100.00
56944;BME280;42848;42.524;12.052;2022-10-16T00:06:25;97169.38;;;15.92;100.00
56944;BME280;42848;42.524;12.052;2022-10-16T00:08:51;97174.28;;;15.75;100.00
56944;BME280;42848;42.524;12.052;2022-10-16T00:11:25;97174.63;;;15.73;100.00
56944;BME280;42848;42.524;12.052;2022-10-16T00:13:55;97176.53;;;15.60;100.00
56944;BME280;42848;42.524;12.052;2022-10-16T00:16:22;97170.84;;;15.66;100.00
56944;BME280;42848;42.524;12.052;2022-10-16T00:18:47;97175.03;;;15.51;100.00
56944;BME280;42848;42.524;12.052;2022-10-16T00:21:16;97174.81;;;15.56;100.00
56944;BME280;42848;42.524;12.052;2022-10-16T00:23:42;97168.69;;;15.71;100.00
56944;BME280;42848;42.524;12.052;2022-10-16T00:26:15;97165.47;;;15.57;100.00
56944;BME280;42848;42.524;12.052;2022-10-16T00:28:41;97177.66;;;15.59;100.00
56944;BME280;42848;42.524;12.052;2022-10-16T00:31:10;97165.91;;;15.59;100.00
56944;BME280;42848;42.524;12.052;2022-10-16T00:33:38;97174.75;;;15.64;100.00
56944;BME280;42848;42.524;12.052;2022-10-16T00:36:05;97173.53;;;15.53;100.00
56944;BME280;42848;42.524;12.052;2022-10-16T00:38:31;97166.84;;;15.63;100.00
56944;BME280;42848;42.524;12.052;2022-10-16T00:40:57;97171.19;;;15.64;100.00
56944;BME280;42848;42.524;12.052;2022-10-16T00:43:45;97169.00;;;15.57;100.00
56944;BME280;42848;42.524;12.052;2022-10-16T00:46:21;97174.69;;;15.52;100.00
56944;BME280;42848;42.524;12.052;2022-10-16T00:48:52;97174.91;;;15.47;100.00
56944;BME280;42848;42.524;12.052;2022-10-16T00:51:23;97174.69;;;15.40;100.00
56944;BME280;42848;42.524;12.052;2022-10-16T00:53:50;97180.97;;;15.07;100.00
56944;BME280;42848;42.524;12.052;2022-10-16T00:56:17;97183.00;;;15.44;100.00
56944;BME280;42848;42.524;12.052;2022-10-16T00:58:43;97182.78;;;15.49;100.00
56944;BME280;42848;42.524;12.052;2022-10-16T01:01:08;97178.31;;;15.44;100.00
56944;BME280;42848;42.524;12.052;2022-10-16T01:03:36;97171.94;;;15.40;100.00
56944;BME280;42848;42.524;12.052;2022-10-16T01:09:11;97173.75;;;15.36;100.00
56944;BME280;42848;42.524;12.052;2022-10-16T01:11:41;97184.22;;;15.34;100.00
56944;BME280;42848;42.524;12.052;2022-10-16T01:17:14;97181.66;;;15.04;100.00
56944;BME280;42848;42.524;12.052;2022-10-16T01:23:31;97191.97;;;15.20;100.00
56944;BME280;42848;42.524;12.052;2022-10-16T01:28:16;97186.41;;;15.28;100.00
56944;BME280;42848;42.524;12.052;2022-10-16T01:30:45;97188.38;;;15.07;100.00
56944;BME280;42848;42.524;12.052;2022-10-16T01:33:22;97188.53;;;15.11;100.00
56944;BME280;42848;42.524;12.052;2022-10-16T01:35:55;97187.47;;;15.03;100.00
56944;BME280;42848;42.524;12.052;2022-10-16T01:38:30;97185.25;;;15.29;100.00
56944;BME280;42848;42.524;12.052;2022-10-16T01:41:04;97184.72;;;14.91;100.00
56944;BME280;42848;42.524;12.052;2022-10-16T01:43:42;97183.66;;;15.28;100.00
56944;BME280;42848;42.524;12.052;2022-10-16T01:46:10;97186.25;;;15.25;100.00
56944;BME280;42848;42.524;12.052;2022-10-16T01:48:38;97191.03;;;15.16;100.00
56944;BME280;42848;42.524;12.052;2022-10-16T01:51:08;97169.19;;;15.28;100.00
56944;BME280;42848;42.524;12.052;2022-10-16T01:53:36;97168.28;;;15.36;100.00
56944;BME280;42848;42.524;12.052;2022-10-16T01:56:05;97176.91;;;15.14;100.00
56944;BME280;42848;42.524;12.052;2022-10-16T01:58:36;97176.50;;;15.48;100.00
56944;BME280;42848;42.524;12.052;2022-10-16T02:01:04;97177.16;;;15.21;100.00
56944;BME280;42848;42.524;12.052;2022-10-16T02:03:34;97177.41;;;15.40;100.00
56944;BME280;42848;42.524;12.052;2022-10-16T02:06:02;97176.03;;;15.34;100.00
56944;BME280;42848;42.524;12.052;2022-10-16T02:08:29;97176.47;;;15.36;100.00
56944;BME280;42848;42.524;12.052;2022-10-16T02:10:57;97183.78;;;15.32;100.00
56944;BME280;42848;42.524;12.052;2022-10-16T02:13:45;97178.75;;;15.22;100.00
56944;BME280;42848;42.524;12.052;2022-10-16T02:16:13;97182.13;;;15.06;100.00
56944;BME280;42848;42.524;12.052;2022-10-16T02:18:40;97178.00;;;15.00;100.00
56944;BME280;42848;42.524;12.052;2022-10-16T02:21:25;97182.88;;;14.95;100.00
56944;BME280;42848;42.524;12.052;2022-10-16T02:24:03;97187.84;;;15.26;100.00
56944;BME280;42848;42.524;12.052;2022-10-16T02:29:08;97191.53;;;15.30;100.00
56944;BME280;42848;42.524;12.052;2022-10-16T02:31:41;97193.72;;;15.03;100.00
56944;BME280;42848;42.524;12.052;2022-10-16T02:34:10;97186.22;;;15.00;100.00
56944;BME280;42848;42.524;12.052;2022-10-16T02:36:37;97195.16;;;15.22;100.00
56944;BME280;42848;42.524;12.052;2022-10-16T02:39:05;97189.66;;;15.10;100.00
56944;BME280;42848;42.524;12.052;2022-10-16T02:41:32;97190.72;;;14.84;100.00
56944;BME280;42848;42.524;12.052;2022-10-16T02:43:58;97188.72;;;15.05;100.00
56944;BME280;42848;42.524;12.052;2022-10-16T02:46:23;97187.75;;;14.89;100.00
56944;BME280;42848;42.524;12.052;2022-10-16T02:48:49;97186.88;;;14.97;100.00
56944;BME280;42848;42.524;12.052;2022-10-16T02:51:15;97188.84;;;14.76;100.00
56944;BME280;42848;42.524;12.052;2022-10-16T02:53:41;97186.88;;;14.97;100.00
56944;BME280;42848;42.524;12.052;2022-10-16T02:56:07;97196.25;;;15.08;100.00
56944;BME280;42848;42.524;12.052;2022-10-16T02:58:32;97191.13;;;14.74;100.00
56944;BME280;42848;42.524;12.052;2022-10-16T03:00:58;97194.91;;;15.15;100.00
56944;BME280;42848;42.524;12.052;2022-10-16T03:03:24;97189.44;;;15.27;100.00
56944;BME280;42848;42.524;12.052;2022-10-16T03:05:49;97186.06;;;15.30;100.00
56944;BME280;42848;42.524;12.052;2022-10-16T03:08:15;97191.44;;;14.93;100.00
56944;BME280;42848;42.524;12.052;2022-10-16T03:10:41;97182.88;;;14.95;100.00
56944;BME280;42848;42.524;12.052;2022-10-16T03:13:07;97188.00;;;14.96;100.00
56944;BME280;42848;42.524;12.052;2022-10-16T03:15:32;97195.50;;;14.87;100.00
56944;BME280;42848;42.524;12.052;2022-10-16T03:17:58;97197.88;;;15.10;100.00
56944;BME280;42848;42.524;12.052;2022-10-16T03:20:25;97193.06;;;15.06;100.00
56944;BME280;42848;42.524;12.052;2022-10-16T03:22:50;97200.69;;;15.01;100.00
56944;BME280;42848;42.524;12.052;2022-10-16T03:25:16;97202.66;;;15.13;100.00
56944;BME280;42848;42.524;12.052;2022-10-16T03:27:42;97204.75;;;15.28;100.00
56944;BME280;42848;42.524;12.052;2022-10-16T03:30:08;97203.34;;;15.10;100.00
56944;BME280;42848;42.524;12.052;2022-10-16T03:32:34;97198.06;;;15.04;100.00
56944;BME280;42848;42.524;12.052;2022-10-16T03:34:59;97191.53;;;14.97;100.00
56944;BME280;42848;42.524;12.052;2022-10-16T03:37:25;97197.84;;;14.76;100.00
56944;BME280;42848;42.524;12.052;2022-10-16T03:39:51;97194.63;;;14.95;100.00
56944;BME280;42848;42.524;12.052;2022-10-16T03:42:17;97201.91;;;14.91;100.00
56944;BME280;42848;42.524;12.052;2022-10-16T03:44:43;97199.41;;;14.65;100.00
56944;BME280;42848;42.524;12.052;2022-10-16T03:47:08;97193.63;;;15.00;100.00
56944;BME280;42848;42.524;12.052;2022-10-16T03:49:34;97187.66;;;14.98;100.00
56944;BME280;42848;42.524;12.052;2022-10-16T03:52:00;97203.06;;;15.02;100.00
56944;BME280;42848;42.524;12.052;2022-10-16T03:54:25;97212.13;;;14.82;100.00
56944;BME280;42848;42.524;12.052;2022-10-16T03:56:51;97208.84;;;14.68;100.00
56944;BME280;42848;42.524;12.052;2022-10-16T03:59:17;97206.97;;;14.80;100.00
56944;BME280;42848;42.524;12.052;2022-10-16T04:01:42;97217.66;;;14.73;100.00
56944;BME280;42848;42.524;12.052;2022-10-16T04:04:08;97214.31;;;14.68;100.00
56944;BME280;42848;42.524;12.052;2022-10-16T04:06:34;97210.38;;;14.77;100.00
56944;BME280;42848;42.524;12.052;2022-10-16T04:08:59;97211.78;;;14.63;100.00
56944;BME280;42848;42.524;12.052;2022-10-16T04:11:25;97214.72;;;14.58;100.00
56944;BME280;42848;42.524;12.052;2022-10-16T04:13:51;97223.78;;;14.70;100.00
56944;BME280;42848;42.524;12.052;2022-10-16T04:16:16;97222.84;;;14.45;100.00
56944;BME280;42848;42.524;12.052;2022-10-16T04:18:42;97215.22;;;14.72;100.00
56944;BME280;42848;42.524;12.052;2022-10-16T04:21:08;97223.53;;;14.63;100.00
56944;BME280;42848;42.524;12.052;2022-10-16T04:23:34;97221.19;;;14.74;100.00
56944;BME280;42848;42.524;12.052;2022-10-16T04:26:00;97223.78;;;14.70;100.00
56944;BME280;42848;42.524;12.052;2022-10-16T04:28:26;97223.78;;;14.20;100.00
56944;BME280;42848;42.524;12.052;2022-10-16T04:30:52;97229.72;;;14.22;100.00
56944;BME280;42848;42.524;12.052;2022-10-16T04:33:18;97233.06;;;14.28;100.00
56944;BME280;42848;42.524;12.052;2022-10-16T04:35:43;97234.84;;;14.74;100.00
56944;BME280;42848;42.524;12.052;2022-10-16T04:38:09;97239.63;;;14.77;100.00
56944;BME280;42848;42.524;12.052;2022-10-16T04:40:35;97243.97;;;14.78;100.00
56944;BME280;42848;42.524;12.052;2022-10-16T04:43:05;97239.09;;;14.63;100.00
56944;BME280;42848;42.524;12.052;2022-10-16T04:45:31;97236.66;;;14.40;100.00
56944;BME280;42848;42.524;12.052;2022-10-16T04:48:00;97242.13;;;14.40;100.00
56944;BME280;42848;42.524;12.052;2022-10-16T04:50:25;97237.53;;;14.32;100.00
56944;BME280;42848;42.524;12.052;2022-10-16T04:52:51;97245.88;;;14.36;100.00
56944;BME280;42848;42.524;12.052;2022-10-16T04:55:17;97234.84;;;14.74;100.00
56944;BME280;42848;42.524;12.052;2022-10-16T04:57:43;97233.44;;;14.68;100.00
56944;BME280;42848;42.524;12.052;2022-10-16T05:00:09;97239.78;;;14.60;100.00
56944;BME280;42848;42.524;12.052;2022-10-16T05:02:34;97242.72;;;14.55;100.00
56944;BME280;42848;42.524;12.052;2022-10-16T05:05:00;97240.44;;;14.57;100.00
56944;BME280;42848;42.524;12.052;2022-10-16T05:07:26;97232.31;;;14.48;100.00
56944;BME280;42848;42.524;12.052;2022-10-16T05:09:51;97236.50;;;14.45;100.00
56944;BME280;42848;42.524;12.052;2022-10-16T05:12:17;97236.47;;;14.54;100.00
56944;BME280;42848;42.524;12.052;2022-10-16T05:14:43;97229.94;;;14.38;100.00
56944;BME280;42848;42.524;12.052;2022-10-16T05:17:08;97227.19;;;14.46;100.00
56944;BME280;42848;42.524;12.052;2022-10-16T05:19:34;97226.41;;;14.37;100.00
56944;BME280;42848;42.524;12.052;2022-10-16T05:22:00;97223.78;;;14.49;100.00
56944;BME280;42848;42.524;12.052;2022-10-16T05:24:26;97230.03;;;14.50;100.00
56944;BME280;42848;42.524;12.052;2022-10-16T05:26:52;97231.84;;;14.67;100.00
56944;BME280;42848;42.524;12.052;2022-10-16T05:29:18;97232.34;;;14.81;100.00
56944;BME280;42848;42.524;12.052;2022-10-16T05:31:45;97234.84;;;14.74;100.00
56944;BME280;42848;42.524;12.052;2022-10-16T05:34:10;97235.78;;;14.78;100.00
56944;BME280;42848;42.524;12.052;2022-10-16T05:36:36;97238.44;;;14.66;100.00
56944;BME280;42848;42.524;12.052;2022-10-16T05:39:05;97244.19;;;14.73;100.00
56944;BME280;42848;42.524;12.052;2022-10-16T05:41:30;97248.03;;;14.72;100.00
56944;BME280;42848;42.524;12.052;2022-10-16T05:43:57;97248.69;;;14.90;100.00
56944;BME280;42848;42.524;12.052;2022-10-16T05:46:22;97249.03;;;14.88;100.00
56944;BME280;42848;42.524;12.052;2022-10-16T05:48:48;97250.88;;;14.96;100.00
56944;BME280;42848;42.524;12.052;2022-10-16T05:51:14;97242.38;;;14.77;100.00
56944;BME280;42848;42.524;12.052;2022-10-16T05:53:41;97238.69;;;14.52;100.00
56944;BME280;42848;42.524;12.052;2022-10-16T05:56:09;97236.00;;;14.43;100.00
56944;BME280;42848;42.524;12.052;2022-10-16T05:58:36;97241.19;;;14.66;100.00
56944;BME280;42848;42.524;12.052;2022-10-16T06:01:09;97240.78;;;14.76;100.00
56944;BME280;42848;42.524;12.052;2022-10-16T06:03:35;97251.25;;;14.74;100.00
56944;BME280;42848;42.524;12.052;2022-10-16T06:06:12;97256.97;;;14.81;100.00
56944;BME280;42848;42.524;12.052;2022-10-16T06:08:39;97255.91;;;14.94;100.00
56944;BME280;42848;42.524;12.052;2022-10-16T06:11:07;97266.38;;;14.92;100.00
56944;BME280;42848;42.524;12.052;2022-10-16T06:13:34;97262.16;;;14.95;100.00
56944;BME280;42848;42.524;12.052;2022-10-16T06:16:00;97269.75;;;14.89;100.00
56944;BME280;42848;42.524;12.052;2022-10-16T06:18:27;97264.44;;;14.93;100.00
56944;BME280;42848;42.524;12.052;2022-10-16T06:20:54;97264.75;;;15.12;100.00
56944;BME280;42848;42.524;12.052;2022-10-16T06:23:20;97268.28;;;15.13;100.00
56944;BME280;42848;42.524;12.052;2022-10-16T06:25:46;97273.41;;;15.14;100.00
56944;BME280;42848;42.524;12.052;2022-10-16T06:28:13;97266.94;;;14.98;100.00
56944;BME280;42848;42.524;12.052;2022-10-16T06:30:39;97277.47;;;15.29;100.00
56944;BME280;42848;42.524;12.052;2022-10-16T06:33:05;97279.72;;;15.27;100.00
56944;BME280;42848;42.524;12.052;2022-10-16T06:35:30;97290.00;;;15.30;100.00
56944;BME280;42848;42.524;12.052;2022-10-16T06:37:57;97291.19;;;15.41;100.00
56944;BME280;42848;42.524;12.052;2022-10-16T06:40:23;97293.63;;;15.22;100.00
56944;BME280;42848;42.524;12.052;2022-10-16T06:42:49;97295.47;;;15.30;100.00
56944;BME280;42848;42.524;12.052;2022-10-16T06:45:17;97306.00;;;15.40;100.00
56944;BME280;42848;42.524;12.052;2022-10-16T06:47:42;97303.03;;;15.45;100.00
56944;BME280;42848;42.524;12.052;2022-10-16T06:50:08;97305.91;;;15.49;100.00
56944;BME280;42848;42.524;12.052;2022-10-16T06:52:34;97313.69;;;15.59;100.00
56944;BME280;42848;42.524;12.052;2022-10-16T06:55:00;97316.38;;;15.68;100.00
56944;BME280;42848;42.524;12.052;2022-10-16T06:57:26;97321.16;;;15.71;100.00
56944;BME280;42848;42.524;12.052;2022-10-16T06:59:52;97322.53;;;15.64;100.00
56944;BME280;42848;42.524;12.052;2022-10-16T07:02:17;97326.63;;;15.71;100.00
56944;BME280;42848;42.524;12.052;2022-10-16T07:04:43;97328.91;;;15.69;100.00
56944;BME280;42848;42.524;12.052;2022-10-16T07:07:08;97329.19;;;15.88;100.00
56944;BME280;42848;42.524;12.052;2022-10-16T07:09:34;97335.31;;;15.73;100.00
56944;BME280;42848;42.524;12.052;2022-10-16T07:12:00;97331.00;;;15.84;100.00
56944;BME280;42848;42.524;12.052;2022-10-16T07:14:25;97325.78;;;15.91;100.00
56944;BME280;42848;42.524;12.052;2022-10-16T07:16:51;97336.84;;;15.95;100.00
56944;BME280;42848;42.524;12.052;2022-10-16T07:19:17;97349.09;;;16.09;100.00
56944;BME280;42848;42.524;12.052;2022-10-16T07:21:43;97345.53;;;16.09;100.00
56944;BME280;42848;42.524;12.052;2022-10-16T07:24:15;97346.56;;;16.04;100.00
56944;BME280;42848;42.524;12.052;2022-10-16T07:26:42;97342.00;;;16.08;100.00
56944;BME280;42848;42.524;12.052;2022-10-16T07:29:18;97347.06;;;16.18;100.00
56944;BME280;42848;42.524;12.052;2022-10-16T07:31:44;97347.25;;;16.26;100.00
56944;BME280;42848;42.524;12.052;2022-10-16T07:34:12;97352.28;;;16.24;100.00
56944;BME280;42848;42.524;12.052;2022-10-16T07:36:38;97354.13;;;16.19;100.00
56944;BME280;42848;42.524;12.052;2022-10-16T07:39:04;97345.91;;;16.32;100.00
56944;BME280;42848;42.524;12.052;2022-10-16T07:41:30;97350.03;;;16.38;100.00
56944;BME280;42848;42.524;12.052;2022-10-16T07:43:58;97354.13;;;16.44;100.00
56944;BME280;42848;42.524;12.052;2022-10-16T07:46:28;97357.91;;;16.39;100.00
56944;BME280;42848;42.524;12.052;2022-10-16T07:48:54;97361.91;;;16.42;100.00
56944;BME280;42848;42.524;12.052;2022-10-16T07:51:24;97355.72;;;16.33;100.00
56944;BME280;42848;42.524;12.052;2022-10-16T07:53:50;97369.66;;;16.40;100.00
56944;BME280;42848;42.524;12.052;2022-10-16T07:56:17;97368.31;;;16.46;100.00
56944;BME280;42848;42.524;12.052;2022-10-16T07:58:43;97383.81;;;16.54;100.00
56944;BME280;42848;42.524;12.052;2022-10-16T08:01:11;97387.69;;;16.53;100.00
56944;BME280;42848;42.524;12.052;2022-10-16T08:03:38;97380.25;;;17.15;100.00
56944;BME280;42848;42.524;12.052;2022-10-16T08:06:04;97380.63;;;16.64;100.00
56944;BME280;42848;42.524;12.052;2022-10-16T08:08:30;97382.25;;;16.65;100.00
56944;BME280;42848;42.524;12.052;2022-10-16T08:10:56;97388.88;;;16.76;100.00
56944;BME280;42848;42.524;12.052;2022-10-16T08:13:22;97390.25;;;16.70;100.00
56944;BME280;42848;42.524;12.052;2022-10-16T08:15:47;97387.03;;;16.81;100.00
56944;BME280;42848;42.524;12.052;2022-10-16T08:18:14;97387.53;;;16.83;100.00
56944;BME280;42848;42.524;12.052;2022-10-16T08:20:41;97392.75;;;16.88;100.00
56944;BME280;42848;42.524;12.052;2022-10-16T08:23:10;97391.19;;;16.74;100.00
56944;BME280;42848;42.524;12.052;2022-10-16T08:25:37;97390.25;;;16.83;100.00
56944;BME280;42848;42.524;12.052;2022-10-16T08:28:05;97394.38;;;16.76;100.00
56944;BME280;42848;42.524;12.052;2022-10-16T08:30:31;97397.88;;;16.65;100.00
56944;BME280;42848;42.524;12.052;2022-10-16T08:32:57;97399.38;;;16.87;100.00
56944;BME280;42848;42.524;12.052;2022-10-16T08:35:23;97397.41;;;16.99;100.00
56944;BME280;42848;42.524;12.052;2022-10-16T08:37:49;97398.34;;;17.03;100.00
56944;BME280;42848;42.524;12.052;2022-10-16T08:40:21;97401.09;;;17.03;100.00
56944;BME280;42848;42.524;12.052;2022-10-16T08:43:02;97402.22;;;17.02;100.00
56944;BME280;42848;42.524;12.052;2022-10-16T08:51:01;97405.75;;;17.15;100.00
56944;BME280;42848;42.524;12.052;2022-10-16T08:53:45;97413.28;;;17.30;100.00
56944;BME280;42848;42.524;12.052;2022-10-16T08:56:14;97412.69;;;17.25;100.00
56944;BME280;42848;42.524;12.052;2022-10-16T08:58:40;97412.28;;;17.11;100.00
56944;BME280;42848;42.524;12.052;2022-10-16T09:01:12;97412.81;;;17.16;100.00
56944;BME280;42848;42.524;12.052;2022-10-16T09:04:20;97411.53;;;17.26;100.00
56944;BME280;42848;42.524;12.052;2022-10-16T09:06:59;97413.84;;;17.24;100.00
56944;BME280;42848;42.524;12.052;2022-10-16T09:15:36;97419.63;;;17.47;100.00
56944;BME280;42848;42.524;12.052;2022-10-16T09:18:16;97423.19;;;17.47;100.00
56944;BME280;42848;42.524;12.052;2022-10-16T09:20:53;97417.63;;;17.59;100.00
56944;BME280;42848;42.524;12.052;2022-10-16T09:23:25;97421.75;;;17.66;100.00
56944;BME280;42848;42.524;12.052;2022-10-16T09:25:52;97424.50;;;17.66;100.00
56944;BME280;42848;42.524;12.052;2022-10-16T09:28:19;97426.59;;;17.56;100.00
56944;BME280;42848;42.524;12.052;2022-10-16T09:30:46;97428.97;;;17.58;100.00
56944;BME280;42848;42.524;12.052;2022-10-16T09:33:14;97436.84;;;17.72;100.00
56944;BME280;42848;42.524;12.052;2022-10-16T09:35:45;97436.78;;;17.56;100.00
56944;BME280;42848;42.524;12.052;2022-10-16T09:38:27;97427.56;;;17.64;100.00
56944;BME280;42848;42.524;12.052;2022-10-16T09:40:55;97430.44;;;17.68;100.00
56944;BME280;42848;42.524;12.052;2022-10-16T09:43:22;97428.09;;;17.82;100.00
56944;BME280;42848;42.524;12.052;2022-10-16T09:46:03;97440.34;;;17.84;100.00
56944;BME280;42848;42.524;12.052;2022-10-16T09:48:48;97430.69;;;17.90;100.00
56944;BME280;42848;42.524;12.052;2022-10-16T09:51:34;97428.81;;;17.79;100.00
56944;BME280;42848;42.524;12.052;2022-10-16T09:56:36;97434.19;;;18.03;100.00
56944;BME280;42848;42.524;12.052;2022-10-16T09:59:21;97427.69;;;18.24;100.00
56944;BME280;42848;42.524;12.052;2022-10-16T10:02:02;97430.88;;;18.26;100.00
56944;BME280;42848;42.524;12.052;2022-10-16T10:04:41;97439.56;;;18.28;100.00
56944;BME280;42848;42.524;12.052;2022-10-16T10:07:18;97437.38;;;18.49;100.00
56944;BME280;42848;42.524;12.052;2022-10-16T10:09:46;97439.50;;;18.56;100.00
56944;BME280;42848;42.524;12.052;2022-10-16T10:12:21;97439.69;;;18.63;100.00
56944;BME280;42848;42.524;12.052;2022-10-16T10:14:50;97429.31;;;18.72;100.00
56944;BME280;42848;42.524;12.052;2022-10-16T10:17:22;97429.50;;;18.79;100.00
56944;BME280;42848;42.524;12.052;2022-10-16T10:22:42;97421.25;;;18.79;100.00
56944;BME280;42848;42.524;12.052;2022-10-16T10:28:03;97434.09;;;18.91;100.00
56944;BME280;42848;42.524;12.052;2022-10-16T10:41:26;97422.66;;;19.04;100.00
56944;BME280;42848;42.524;12.052;2022-10-16T10:46:56;97423.50;;;19.09;100.00
56944;BME280;42848;42.524;12.052;2022-10-16T10:49:44;97423.50;;;19.09;100.00
56944;BME280;42848;42.524;12.052;2022-10-16T10:53:28;97419.34;;;19.15;100.00
56944;BME280;42848;42.524;12.052;2022-10-16T10:55:54;97421.19;;;19.11;100.00
56944;BME280;42848;42.524;12.052;2022-10-16T11:01:08;97423.41;;;19.21;100.00
56944;BME280;42848;42.524;12.052;2022-10-16T11:09:20;97419.97;;;19.43;100.00
56944;BME280;42848;42.524;12.052;2022-10-16T11:12:00;97418.16;;;19.51;100.00
56944;BME280;42848;42.524;12.052;2022-10-16T11:14:30;97420.22;;;19.38;100.00
56944;BME280;42848;42.524;12.052;2022-10-16T11:17:19;97423.91;;;19.26;100.00
56944;BME280;42848;42.524;12.052;2022-10-16T11:20:26;97419.41;;;19.18;100.00
56944;BME280;42848;42.524;12.052;2022-10-16T11:23:00;97422.81;;;19.12;100.00
56944;BME280;42848;42.524;12.052;2022-10-16T11:25:30;97414.59;;;19.31;100.00
56944;BME280;42848;42.524;12.052;2022-10-16T11:36:23;97417.06;;;19.36;100.00
56944;BME280;42848;42.524;12.052;2022-10-16T11:38:58;97416.25;;;19.36;100.00
56944;BME280;42848;42.524;12.052;2022-10-16T11:41:33;97415.09;;;19.37;100.00
56944;BME280;42848;42.524;12.052;2022-10-16T11:44:19;97412.84;;;19.23;100.00
56944;BME280;42848;42.524;12.052;2022-10-16T11:49:50;97408.25;;;19.11;100.00
56944;BME280;42848;42.524;12.052;2022-10-16T11:52:46;97411.81;;;19.12;100.00
56944;BME280;42848;42.524;12.052;2022-10-16T11:55:20;97413.41;;;19.13;100.00
56944;BME280;42848;42.524;12.052;2022-10-16T11:57:52;97414.25;;;19.17;100.00
56944;BME280;42848;42.524;12.052;2022-10-16T12:00:43;97410.66;;;19.13;100.00
56944;BME280;42848;42.524;12.052;2022-10-16T12:03:20;97411.25;;;19.22;100.00
56944;BME280;42848;42.524;12.052;2022-10-16T12:08:23;97409.91;;;19.16;100.00
56944;BME280;42848;42.524;12.052;2022-10-16T12:10:49;97407.16;;;19.16;100.00
56944;BME280;42848;42.524;12.052;2022-10-16T12:13:38;97407.41;;;19.26;100.00
56944;BME280;42848;42.524;12.052;2022-10-16T12:18:45;97404.38;;;19.31;100.00
56944;BME280;42848;42.524;12.052;2022-10-16T12:21:14;97410.59;;;19.28;100.00
56944;BME280;42848;42.524;12.052;2022-10-16T12:23:50;97415.28;;;19.28;100.00
56944;BME280;42848;42.524;12.052;2022-10-16T12:26:28;97402.69;;;19.27;100.00
56944;BME280;42848;42.524;12.052;2022-10-16T12:28:56;97406.47;;;19.38;100.00
56944;BME280;42848;42.524;12.052;2022-10-16T12:31:23;97410.44;;;19.56;100.00
56944;BME280;42848;42.524;12.052;2022-10-16T12:34:02;97410.00;;;19.74;100.00
56944;BME280;42848;42.524;12.052;2022-10-16T12:36:32;97405.22;;;19.90;100.00
56944;BME280;42848;42.524;12.052;2022-10-16T12:38:58;97398.53;;;19.91;100.00
56944;BME280;42848;42.524;12.052;2022-10-16T12:41:34;97401.25;;;20.10;100.00
56944;BME280;42848;42.524;12.052;2022-10-16T12:44:24;97406.16;;;19.98;100.00
56944;BME280;42848;42.524;12.052;2022-10-16T12:46:52;97401.28;;;20.33;100.00
56944;BME280;42848;42.524;12.052;2022-10-16T12:51:54;97401.63;;;20.51;100.00
56944;BME280;42848;42.524;12.052;2022-10-16T12:54:28;97404.06;;;20.33;100.00
56944;BME280;42848;42.524;12.052;2022-10-16T13:03:17;97402.97;;;19.96;100.00
56944;BME280;42848;42.524;12.052;2022-10-16T13:11:37;97400.00;;;19.66;100.00
56944;BME280;42848;42.524;12.052;2022-10-16T13:17:13;97395.16;;;19.78;100.00
56944;BME280;42848;42.524;12.052;2022-10-16T13:19:59;97398.81;;;20.05;100.00
56944;BME280;42848;42.524;12.052;2022-10-16T13:25:39;97409.91;;;20.51;100.00
56944;BME280;42848;42.524;12.052;2022-10-16T13:28:11;97409.78;;;20.44;100.00
56944;BME280;42848;42.524;12.052;2022-10-16T13:30:43;97416.00;;;20.41;100.00
56944;BME280;42848;42.524;12.052;2022-10-16T13:33:16;97402.63;;;20.20;100.00
56944;BME280;42848;42.524;12.052;2022-10-16T13:35:52;97406.06;;;20.13;100.00
56944;BME280;42848;42.524;12.052;2022-10-16T13:38:25;97411.91;;;20.31;100.00
56944;BME280;42848;42.524;12.052;2022-10-16T13:40:59;97410.56;;;20.44;100.00
56944;BME280;42848;42.524;12.052;2022-10-16T13:43:36;97413.50;;;20.32;100.00
56944;BME280;42848;42.524;12.052;2022-10-16T13:46:06;97410.00;;;20.35;100.00
56944;BME280;42848;42.524;12.052;2022-10-16T13:48:34;97408.38;;;20.54;100.00
56944;BME280;42848;42.524;12.052;2022-10-16T13:51:15;97409.53;;;20.53;100.00
56944;BME280;42848;42.524;12.052;2022-10-16T13:53:43;97396.59;;;20.57;100.00
56944;BME280;42848;42.524;12.052;2022-10-16T13:56:15;97405.78;;;20.64;100.00
56944;BME280;42848;42.524;12.052;2022-10-16T13:58:42;97409.97;;;20.55;100.00
56944;BME280;42848;42.524;12.052;2022-10-16T14:01:18;97410.94;;;20.66;100.00
56944;BME280;42848;42.524;12.052;2022-10-16T14:03:45;97408.41;;;20.57;100.00
56944;BME280;42848;42.524;12.052;2022-10-16T14:06:17;97409.50;;;20.49;100.00
56944;BME280;42848;42.524;12.052;2022-10-16T14:08:50;97408.69;;;20.49;100.00
56944;BME280;42848;42.524;12.052;2022-10-16T14:11:22;97407.03;;;20.44;100.00
56944;BME280;42848;42.524;12.052;2022-10-16T14:13:52;97408.03;;;20.13;100.00
56944;BME280;42848;42.524;12.052;2022-10-16T14:16:25;97407.50;;;20.07;100.00
56944;BME280;42848;42.524;12.052;2022-10-16T14:18:58;97409.84;;;20.05;100.00
56944;BME280;42848;42.524;12.052;2022-10-16T14:21:25;97403.44;;;20.01;100.00
56944;BME280;42848;42.524;12.052;2022-10-16T14:23:52;97405.84;;;19.83;100.00
56944;BME280;42848;42.524;12.052;2022-10-16T14:26:22;97413.41;;;19.86;100.00
56944;BME280;42848;42.524;12.052;2022-10-16T14:28:49;97413.75;;;20.04;100.00